sensor_id;sensor_type;location;lat;lon;timestamp;temperature;humidity
4637;DHT22;2331;48.806;9.140;2023-05-10T00:00:39;17.50;1.00
4637;DHT22;2331;48.806;9.140;2023-05-10T00:03:06;17.40;1.00
4637;DHT22;2331;48.806;9.140;2023-05-10T00:05:34;17.30;1.00
4637;DHT22;2331;48.806;9.140;2023-05-10T00:08:01;17.20;1.00
4637;DHT22;2331;48.806;9.140;2023-05-10T00:10:27;17.20;1.00
4637;DHT22;2331;48.806;9.140;2023-05-10T00:12:55;17.10;1.00
4637;DHT22;2331;48.806;9.140;2023-05-10T00:15:22;17.00;1.00
4637;DHT22;2331;48.806;9.140;2023-05-10T00:17:49;16.90;1.00
4637;DHT22;2331;48.806;9.140;2023-05-10T00:20:16;16.80;1.00
4637;DHT22;2331;48.806;9.140;2023-05-10T00:22:42;16.70;1.00
4637;DHT22;2331;48.806;9.140;2023-05-10T00:25:09;16.70;1.00
4637;DHT22;2331;48.806;9.140;2023-05-10T00:27:36;16.70;1.00
4637;DHT22;2331;48.806;9.140;2023-05-10T00:30:05;16.70;1.00
4637;DHT22;2331;48.806;9.140;2023-05-10T00:32:32;16.70;1.00
4637;DHT22;2331;48.806;9.140;2023-05-10T00:34:59;16.50;1.00
4637;DHT22;2331;48.806;9.140;2023-05-10T00:37:26;16.60;1.00
4637;DHT22;2331;48.806;9.140;2023-05-10T00:39:53;16.40;1.00
4637;DHT22;2331;48.806;9.140;2023-05-10T00:42:19;16.20;1.00
4637;DHT22;2331;48.806;9.140;2023-05-10T00:44:46;16.20;1.00
4637;DHT22;2331;48.806;9.140;2023-05-10T00:47:15;16.20;1.00
4637;DHT22;2331;48.806;9.140;2023-05-10T00:49:42;16.20;1.00
4637;DHT22;2331;48.806;9.140;2023-05-10T00:52:09;16.10;1.00
4637;DHT22;2331;48.806;9.140;2023-05-10T00:54:36;16.20;1.00
4637;DHT22;2331;48.806;9.140;2023-05-10T00:57:03;16.10;1.00
4637;DHT22;2331;48.806;9.140;2023-05-10T00:59:30;16.10;1.00
4637;DHT22;2331;48.806;9.140;2023-05-10T01:01:57;16.10;1.00
4637;DHT22;2331;48.806;9.140;2023-05-10T01:04:26;16.00;1.00
4637;DHT22;2331;48.806;9.140;2023-05-10T01:06:53;16.00;1.00
4637;DHT22;2331;48.806;9.140;2023-05-10T01:09:21;15.90;1.00
4637;DHT22;2331;48.806;9.140;2023-05-10T01:11:49;15.90;1.00
4637;DHT22;2331;48.806;9.140;2023-05-10T01:14:18;15.90;1.00
4637;DHT22;2331;48.806;9.140;2023-05-10T01:16:46;15.90;1.00
4637;DHT22;2331;48.806;9.140;2023-05-10T01:19:19;15.90;1.00
4637;DHT22;2331;48.806;9.140;2023-05-10T01:21:54;15.90;1.00
4637;DHT22;2331;48.806;9.140;2023-05-10T01:27:36;15.80;1.00
4637;DHT22;2331;48.806;9.140;2023-05-10T01:30:42;15.80;1.00
4637;DHT22;2331;48.806;9.140;2023-05-10T01:33:15;15.90;1.00
4637;DHT22;2331;48.806;9.140;2023-05-10T01:35:50;15.90;1.00
4637;DHT22;2331;48.806;9.140;2023-05-10T01:38:22;16.00;1.00
4637;DHT22;2331;48.806;9.140;2023-05-10T01:41:00;15.90;1.00
4637;DHT22;2331;48.806;9.140;2023-05-10T01:43:32;15.90;1.00
4637;DHT22;2331;48.806;9.140;2023-05-10T01:46:07;15.80;1.00
4637;DHT22;2331;48.806;9.140;2023-05-10T01:48:40;15.80;1.00
4637;DHT22;2331;48.806;9.140;2023-05-10T01:51:12;15.80;1.00
4637;DHT22;2331;48.806;9.140;2023-05-10T01:53:40;15.90;1.00
4637;DHT22;2331;48.806;9.140;2023-05-10T01:56:09;15.80;1.00
4637;DHT22;2331;48.806;9.140;2023-05-10T01:58:39;15.90;1.00
4637;DHT22;2331;48.806;9.140;2023-05-10T02:01:08;16.00;1.00
4637;DHT22;2331;48.806;9.140;2023-05-10T02:03:38;16.10;1.00
4637;DHT22;2331;48.806;9.140;2023-05-10T02:06:08;16.10;1.00
4637;DHT22;2331;48.806;9.140;2023-05-10T02:08:36;16.20;1.00
4637;DHT22;2331;48.806;9.140;2023-05-10T02:11:03;16.20;1.00
4637;DHT22;2331;48.806;9.140;2023-05-10T02:13:32;16.20;1.00
4637;DHT22;2331;48.806;9.140;2023-05-10T02:16:03;16.20;1.00
4637;DHT22;2331;48.806;9.140;2023-05-10T02:18:32;16.20;1.00
4637;DHT22;2331;48.806;9.140;2023-05-10T02:21:02;16.20;1.00
4637;DHT22;2331;48.806;9.140;2023-05-10T02:23:29;16.30;1.00
4637;DHT22;2331;48.806;9.140;2023-05-10T02:25:57;16.30;1.00
4637;DHT22;2331;48.806;9.140;2023-05-10T02:28:25;16.30;1.00
4637;DHT22;2331;48.806;9.140;2023-05-10T02:30:53;16.30;1.00
4637;DHT22;2331;48.806;9.140;2023-05-10T02:33:20;16.30;1.00
4637;DHT22;2331;48.806;9.140;2023-05-10T02:35:49;16.30;1.00
4637;DHT22;2331;48.806;9.140;2023-05-10T02:38:19;16.30;1.00
4637;DHT22;2331;48.806;9.140;2023-05-10T02:40:47;16.30;1.00
4637;DHT22;2331;48.806;9.140;2023-05-10T02:43:16;16.20;1.00
4637;DHT22;2331;48.806;9.140;2023-05-10T02:45:43;16.20;1.00
4637;DHT22;2331;48.806;9.140;2023-05-10T02:48:13;16.20;1.00
4637;DHT22;2331;48.806;9.140;2023-05-10T02:50:42;16.20;1.00
4637;DHT22;2331;48.806;9.140;2023-05-10T02:53:14;16.20;1.00
4637;DHT22;2331;48.806;9.140;2023-05-10T02:55:45;16.30;1.00
4637;DHT22;2331;48.806;9.140;2023-05-10T02:58:15;16.30;1.00
4637;DHT22;2331;48.806;9.140;2023-05-10T03:00:44;16.30;1.00
4637;DHT22;2331;48.806;9.140;2023-05-10T03:03:11;16.30;1.00
4637;DHT22;2331;48.806;9.140;2023-05-10T03:05:38;16.30;1.00
4637;DHT22;2331;48.806;9.140;2023-05-10T03:08:05;16.30;1.00
4637;DHT22;2331;48.806;9.140;2023-05-10T03:10:35;16.30;1.00
4637;DHT22;2331;48.806;9.140;2023-05-10T03:13:14;16.30;1.00
4637;DHT22;2331;48.806;9.140;2023-05-10T03:15:50;16.30;1.00
4637;DHT22;2331;48.806;9.140;2023-05-10T03:18:23;16.20;1.00
4637;DHT22;2331;48.806;9.140;2023-05-10T03:20:51;16.20;1.00
4637;DHT22;2331;48.806;9.140;2023-05-10T03:23:22;16.20;1.00
4637;DHT22;2331;48.806;9.140;2023-05-10T03:25:52;16.20;1.00
4637;DHT22;2331;48.806;9.140;2023-05-10T03:28:21;16.30;1.00
4637;DHT22;2331;48.806;9.140;2023-05-10T03:30:52;16.20;1.00
4637;DHT22;2331;48.806;9.140;2023-05-10T03:33:19;16.20;1.00
4637;DHT22;2331;48.806;9.140;2023-05-10T03:35:46;16.20;1.00
4637;DHT22;2331;48.806;9.140;2023-05-10T03:38:13;16.20;1.00
4637;DHT22;2331;48.806;9.140;2023-05-10T03:40:40;16.10;1.00
4637;DHT22;2331;48.806;9.140;2023-05-10T03:43:06;16.20;1.00
4637;DHT22;2331;48.806;9.140;2023-05-10T03:45:34;16.20;1.00
4637;DHT22;2331;48.806;9.140;2023-05-10T03:48:01;16.10;1.00
4637;DHT22;2331;48.806;9.140;2023-05-10T03:50:28;16.10;1.00
4637;DHT22;2331;48.806;9.140;2023-05-10T03:52:55;16.10;1.00
4637;DHT22;2331;48.806;9.140;2023-05-10T03:55:22;16.00;1.00
4637;DHT22;2331;48.806;9.140;2023-05-10T03:57:49;15.90;1.00
4637;DHT22;2331;48.806;9.140;2023-05-10T04:00:16;16.00;1.00
4637;DHT22;2331;48.806;9.140;2023-05-10T04:02:44;16.00;1.00
4637;DHT22;2331;48.806;9.140;2023-05-10T04:05:11;16.10;1.00
4637;DHT22;2331;48.806;9.140;2023-05-10T04:07:38;16.10;1.00
4637;DHT22;2331;48.806;9.140;2023-05-10T04:10:05;16.00;1.00
4637;DHT22;2331;48.806;9.140;2023-05-10T04:12:33;16.00;1.00
4637;DHT22;2331;48.806;9.140;2023-05-10T04:14:59;15.90;1.00
4637;DHT22;2331;48.806;9.140;2023-05-10T04:17:26;15.80;1.00
4637;DHT22;2331;48.806;9.140;2023-05-10T04:19:55;15.80;1.00
4637;DHT22;2331;48.806;9.140;2023-05-10T04:22:22;15.70;1.00
4637;DHT22;2331;48.806;9.140;2023-05-10T04:24:49;15.60;1.00
4637;DHT22;2331;48.806;9.140;2023-05-10T04:27:16;15.60;1.00
4637;DHT22;2331;48.806;9.140;2023-05-10T04:29:43;15.50;1.00
4637;DHT22;2331;48.806;9.140;2023-05-10T04:32:09;15.60;1.00
4637;DHT22;2331;48.806;9.140;2023-05-10T04:34:36;15.60;1.00
4637;DHT22;2331;48.806;9.140;2023-05-10T04:37:04;15.70;1.00
4637;DHT22;2331;48.806;9.140;2023-05-10T04:39:32;15.70;1.00
4637;DHT22;2331;48.806;9.140;2023-05-10T04:41:59;15.80;1.00
4637;DHT22;2331;48.806;9.140;2023-05-10T04:44:26;15.80;1.00
4637;DHT22;2331;48.806;9.140;2023-05-10T04:46:53;15.90;1.00
4637;DHT22;2331;48.806;9.140;2023-05-10T04:49:19;15.90;1.00
4637;DHT22;2331;48.806;9.140;2023-05-10T04:51:47;15.90;1.00
4637;DHT22;2331;48.806;9.140;2023-05-10T04:54:15;15.90;1.00
4637;DHT22;2331;48.806;9.140;2023-05-10T04:56:41;16.00;1.00
4637;DHT22;2331;48.806;9.140;2023-05-10T04:59:08;16.00;1.00
4637;DHT22;2331;48.806;9.140;2023-05-10T05:01:35;16.00;1.00
4637;DHT22;2331;48.806;9.140;2023-05-10T05:04:02;16.10;1.00
4637;DHT22;2331;48.806;9.140;2023-05-10T05:06:29;16.10;1.00
4637;DHT22;2331;48.806;9.140;2023-05-10T05:08:55;16.00;1.00
4637;DHT22;2331;48.806;9.140;2023-05-10T05:11:23;16.10;1.00
4637;DHT22;2331;48.806;9.140;2023-05-10T05:13:50;16.10;1.00
4637;DHT22;2331;48.806;9.140;2023-05-10T05:16:17;16.10;1.00
4637;DHT22;2331;48.806;9.140;2023-05-10T05:18:44;16.10;1.00
4637;DHT22;2331;48.806;9.140;2023-05-10T05:21:14;16.20;1.00
4637;DHT22;2331;48.806;9.140;2023-05-10T05:23:41;16.20;1.00
4637;DHT22;2331;48.806;9.140;2023-05-10T05:26:08;16.30;1.00
4637;DHT22;2331;48.806;9.140;2023-05-10T05:28:37;16.20;1.00
4637;DHT22;2331;48.806;9.140;2023-05-10T05:31:04;16.30;1.00
4637;DHT22;2331;48.806;9.140;2023-05-10T05:33:31;16.40;1.00
4637;DHT22;2331;48.806;9.140;2023-05-10T05:36:00;16.30;1.00
4637;DHT22;2331;48.806;9.140;2023-05-10T05:38:27;16.40;1.00
4637;DHT22;2331;48.806;9.140;2023-05-10T05:40:53;16.40;1.00
4637;DHT22;2331;48.806;9.140;2023-05-10T05:43:20;16.40;1.00
4637;DHT22;2331;48.806;9.140;2023-05-10T05:45:48;16.40;1.00
4637;DHT22;2331;48.806;9.140;2023-05-10T05:48:15;16.40;1.00
4637;DHT22;2331;48.806;9.140;2023-05-10T05:50:42;16.40;1.00
4637;DHT22;2331;48.806;9.140;2023-05-10T05:53:09;16.40;1.00
4637;DHT22;2331;48.806;9.140;2023-05-10T05:55:35;16.40;1.00
4637;DHT22;2331;48.806;9.140;2023-05-10T05:58:02;16.40;1.00
4637;DHT22;2331;48.806;9.140;2023-05-10T06:00:29;16.30;1.00
4637;DHT22;2331;48.806;9.140;2023-05-10T06:02:57;16.30;1.00
4637;DHT22;2331;48.806;9.140;2023-05-10T06:05:23;16.40;1.00
4637;DHT22;2331;48.806;9.140;2023-05-10T06:07:50;16.40;1.00
4637;DHT22;2331;48.806;9.140;2023-05-10T06:10:17;16.40;1.00
4637;DHT22;2331;48.806;9.140;2023-05-10T06:12:44;16.50;1.00
4637;DHT22;2331;48.806;9.140;2023-05-10T06:15:10;16.40;1.00
4637;DHT22;2331;48.806;9.140;2023-05-10T06:17:38;16.40;1.00
4637;DHT22;2331;48.806;9.140;2023-05-10T06:20:09;16.40;1.00
4637;DHT22;2331;48.806;9.140;2023-05-10T06:22:36;16.40;1.00
4637;DHT22;2331;48.806;9.140;2023-05-10T06:25:03;16.50;1.00
4637;DHT22;2331;48.806;9.140;2023-05-10T06:27:30;16.50;1.00
4637;DHT22;2331;48.806;9.140;2023-05-10T06:29:56;16.60;1.00
4637;DHT22;2331;48.806;9.140;2023-05-10T06:32:23;16.60;1.00
4637;DHT22;2331;48.806;9.140;2023-05-10T06:34:50;16.60;1.00
4637;DHT22;2331;48.806;9.140;2023-05-10T06:37:18;16.60;1.00
4637;DHT22;2331;48.806;9.140;2023-05-10T06:39:45;16.70;1.00
4637;DHT22;2331;48.806;9.140;2023-05-10T06:42:12;16.60;1.00
4637;DHT22;2331;48.806;9.140;2023-05-10T06:44:39;16.70;1.00
4637;DHT22;2331;48.806;9.140;2023-05-10T06:47:06;16.50;1.00
4637;DHT22;2331;48.806;9.140;2023-05-10T06:49:32;16.60;1.00
4637;DHT22;2331;48.806;9.140;2023-05-10T06:51:59;16.50;1.00
4637;DHT22;2331;48.806;9.140;2023-05-10T06:54:27;16.50;1.00
4637;DHT22;2331;48.806;9.140;2023-05-10T06:56:54;16.50;1.00
4637;DHT22;2331;48.806;9.140;2023-05-10T06:59:21;16.50;1.00
4637;DHT22;2331;48.806;9.140;2023-05-10T07:01:48;16.40;1.00
4637;DHT22;2331;48.806;9.140;2023-05-10T07:04:14;16.40;1.00
4637;DHT22;2331;48.806;9.140;2023-05-10T07:06:43;16.40;1.00
4637;DHT22;2331;48.806;9.140;2023-05-10T07:09:11;16.40;1.00
4637;DHT22;2331;48.806;9.140;2023-05-10T07:11:40;16.40;1.00
4637;DHT22;2331;48.806;9.140;2023-05-10T07:14:06;16.40;1.00
4637;DHT22;2331;48.806;9.140;2023-05-10T07:16:33;16.40;1.00
4637;DHT22;2331;48.806;9.140;2023-05-10T07:19:00;16.50;1.00
4637;DHT22;2331;48.806;9.140;2023-05-10T07:21:27;16.50;1.00
4637;DHT22;2331;48.806;9.140;2023-05-10T07:23:54;16.60;1.00
4637;DHT22;2331;48.806;9.140;2023-05-10T07:26:21;16.70;1.00
4637;DHT22;2331;48.806;9.140;2023-05-10T07:28:49;16.80;1.00
4637;DHT22;2331;48.806;9.140;2023-05-10T07:31:16;16.90;1.00
4637;DHT22;2331;48.806;9.140;2023-05-10T07:33:43;16.90;1.00
4637;DHT22;2331;48.806;9.140;2023-05-10T07:36:09;16.90;1.00
4637;DHT22;2331;48.806;9.140;2023-05-10T07:38:36;16.90;1.00
4637;DHT22;2331;48.806;9.140;2023-05-10T07:41:03;16.90;1.00
4637;DHT22;2331;48.806;9.140;2023-05-10T07:43:29;16.90;1.00
4637;DHT22;2331;48.806;9.140;2023-05-10T07:45:57;17.00;1.00
4637;DHT22;2331;48.806;9.140;2023-05-10T07:48:25;17.00;1.00
4637;DHT22;2331;48.806;9.140;2023-05-10T07:50:52;17.00;1.00
4637;DHT22;2331;48.806;9.140;2023-05-10T07:53:19;17.00;1.00
4637;DHT22;2331;48.806;9.140;2023-05-10T07:55:50;17.00;1.00
4637;DHT22;2331;48.806;9.140;2023-05-10T07:58:16;17.00;1.00
4637;DHT22;2331;48.806;9.140;2023-05-10T08:00:43;17.20;1.00
4637;DHT22;2331;48.806;9.140;2023-05-10T08:03:11;17.20;1.00
4637;DHT22;2331;48.806;9.140;2023-05-10T08:05:38;17.20;1.00
4637;DHT22;2331;48.806;9.140;2023-05-10T08:08:05;17.30;1.00
4637;DHT22;2331;48.806;9.140;2023-05-10T08:10:32;17.20;1.00
4637;DHT22;2331;48.806;9.140;2023-05-10T08:12:59;17.30;1.00
4637;DHT22;2331;48.806;9.140;2023-05-10T08:15:28;17.10;1.00
4637;DHT22;2331;48.806;9.140;2023-05-10T08:17:55;17.30;1.00
4637;DHT22;2331;48.806;9.140;2023-05-10T08:20:23;17.20;1.00
4637;DHT22;2331;48.806;9.140;2023-05-10T08:22:50;17.20;1.00
4637;DHT22;2331;48.806;9.140;2023-05-10T08:25:16;17.20;1.00
4637;DHT22;2331;48.806;9.140;2023-05-10T08:27:43;17.20;1.00
4637;DHT22;2331;48.806;9.140;2023-05-10T08:30:10;17.10;1.00
4637;DHT22;2331;48.806;9.140;2023-05-10T08:32:38;17.10;1.00
4637;DHT22;2331;48.806;9.140;2023-05-10T08:35:05;17.00;1.00
4637;DHT22;2331;48.806;9.140;2023-05-10T08:37:34;17.10;1.00
4637;DHT22;2331;48.806;9.140;2023-05-10T08:40:00;17.10;1.00
4637;DHT22;2331;48.806;9.140;2023-05-10T08:42:30;17.10;1.00
4637;DHT22;2331;48.806;9.140;2023-05-10T08:44:57;17.00;1.00
4637;DHT22;2331;48.806;9.140;2023-05-10T08:47:25;17.10;1.00
4637;DHT22;2331;48.806;9.140;2023-05-10T08:49:53;17.20;1.00
4637;DHT22;2331;48.806;9.140;2023-05-10T08:52:21;17.20;1.00
4637;DHT22;2331;48.806;9.140;2023-05-10T08:54:51;17.30;1.00
4637;DHT22;2331;48.806;9.140;2023-05-10T08:57:19;17.40;1.00
4637;DHT22;2331;48.806;9.140;2023-05-10T08:59:46;17.50;1.00
4637;DHT22;2331;48.806;9.140;2023-05-10T09:02:13;17.50;1.00
4637;DHT22;2331;48.806;9.140;2023-05-10T09:04:40;17.50;1.00
4637;DHT22;2331;48.806;9.140;2023-05-10T09:07:07;17.50;1.00
4637;DHT22;2331;48.806;9.140;2023-05-10T09:09:35;17.60;1.00
4637;DHT22;2331;48.806;9.140;2023-05-10T09:12:04;17.60;1.00
4637;DHT22;2331;48.806;9.140;2023-05-10T09:14:34;17.60;1.00
4637;DHT22;2331;48.806;9.140;2023-05-10T09:17:02;17.70;1.00
4637;DHT22;2331;48.806;9.140;2023-05-10T09:19:29;17.60;1.00
4637;DHT22;2331;48.806;9.140;2023-05-10T09:21:55;17.60;1.00
4637;DHT22;2331;48.806;9.140;2023-05-10T09:24:25;17.60;1.00
4637;DHT22;2331;48.806;9.140;2023-05-10T09:26:52;17.60;1.00
4637;DHT22;2331;48.806;9.140;2023-05-10T09:29:21;17.60;1.00
4637;DHT22;2331;48.806;9.140;2023-05-10T09:31:49;17.60;1.00
4637;DHT22;2331;48.806;9.140;2023-05-10T09:34:18;17.60;1.00
4637;DHT22;2331;48.806;9.140;2023-05-10T09:36:52;17.60;1.00
4637;DHT22;2331;48.806;9.140;2023-05-10T09:39:20;17.80;1.00
4637;DHT22;2331;48.806;9.140;2023-05-10T09:41:47;17.90;1.00
4637;DHT22;2331;48.806;9.140;2023-05-10T09:44:17;18.00;1.00
4637;DHT22;2331;48.806;9.140;2023-05-10T09:46:50;18.00;1.00
4637;DHT22;2331;48.806;9.140;2023-05-10T09:49:18;18.00;1.00
4637;DHT22;2331;48.806;9.140;2023-05-10T09:51:45;17.90;1.00
4637;DHT22;2331;48.806;9.140;2023-05-10T09:54:13;17.80;1.00
4637;DHT22;2331;48.806;9.140;2023-05-10T09:56:40;17.90;1.00
4637;DHT22;2331;48.806;9.140;2023-05-10T09:59:10;17.80;1.00
4637;DHT22;2331;48.806;9.140;2023-05-10T10:01:37;17.80;1.00
4637;DHT22;2331;48.806;9.140;2023-05-10T10:04:06;17.80;1.00
4637;DHT22;2331;48.806;9.140;2023-05-10T10:06:37;17.90;1.00
4637;DHT22;2331;48.806;9.140;2023-05-10T10:09:04;18.00;1.00
4637;DHT22;2331;48.806;9.140;2023-05-10T10:11:32;17.90;1.00
4637;DHT22;2331;48.806;9.140;2023-05-10T10:13:58;17.90;1.00
4637;DHT22;2331;48.806;9.140;2023-05-10T10:16:26;17.80;1.00
4637;DHT22;2331;48.806;9.140;2023-05-10T10:18:53;17.80;1.00
4637;DHT22;2331;48.806;9.140;2023-05-10T10:21:22;17.80;1.00
4637;DHT22;2331;48.806;9.140;2023-05-10T10:23:49;17.90;1.00
4637;DHT22;2331;48.806;9.140;2023-05-10T10:26:17;18.00;1.00
4637;DHT22;2331;48.806;9.140;2023-05-10T10:28:51;18.00;1.00
4637;DHT22;2331;48.806;9.140;2023-05-10T10:31:26;18.20;1.00
4637;DHT22;2331;48.806;9.140;2023-05-10T10:34:00;18.20;1.00
4637;DHT22;2331;48.806;9.140;2023-05-10T10:36:29;18.30;1.00
4637;DHT22;2331;48.806;9.140;2023-05-10T10:38:59;18.20;1.00
4637;DHT22;2331;48.806;9.140;2023-05-10T10:41:31;18.00;1.00
4637;DHT22;2331;48.806;9.140;2023-05-10T10:44:35;18.10;1.00
4637;DHT22;2331;48.806;9.140;2023-05-10T10:47:09;17.90;1.00
4637;DHT22;2331;48.806;9.140;2023-05-10T10:49:48;17.80;1.00
4637;DHT22;2331;48.806;9.140;2023-05-10T10:52:23;17.90;1.00
4637;DHT22;2331;48.806;9.140;2023-05-10T10:54:58;17.90;1.00
4637;DHT22;2331;48.806;9.140;2023-05-10T10:57:25;17.90;1.00
4637;DHT22;2331;48.806;9.140;2023-05-10T11:00:25;17.90;1.00
4637;DHT22;2331;48.806;9.140;2023-05-10T11:02:53;17.90;1.00
4637;DHT22;2331;48.806;9.140;2023-05-10T11:05:35;17.90;1.00
4637;DHT22;2331;48.806;9.140;2023-05-10T11:08:17;17.70;1.00
4637;DHT22;2331;48.806;9.140;2023-05-10T11:10:52;17.70;1.00
4637;DHT22;2331;48.806;9.140;2023-05-10T11:13:28;17.40;1.00
4637;DHT22;2331;48.806;9.140;2023-05-10T11:15:57;17.40;1.00
4637;DHT22;2331;48.806;9.140;2023-05-10T11:18:26;17.60;1.00
4637;DHT22;2331;48.806;9.140;2023-05-10T11:20:56;17.40;1.00
4637;DHT22;2331;48.806;9.140;2023-05-10T11:23:23;17.40;1.00
4637;DHT22;2331;48.806;9.140;2023-05-10T11:25:49;17.30;1.00
4637;DHT22;2331;48.806;9.140;2023-05-10T11:28:17;17.40;1.00
4637;DHT22;2331;48.806;9.140;2023-05-10T11:30:45;17.60;1.00
4637;DHT22;2331;48.806;9.140;2023-05-10T11:33:17;17.60;1.00
4637;DHT22;2331;48.806;9.140;2023-05-10T11:35:44;17.70;1.00
4637;DHT22;2331;48.806;9.140;2023-05-10T11:38:12;17.90;1.00
4637;DHT22;2331;48.806;9.140;2023-05-10T11:40:40;18.00;1.00
4637;DHT22;2331;48.806;9.140;2023-05-10T11:43:08;17.90;1.00
4637;DHT22;2331;48.806;9.140;2023-05-10T11:45:35;17.90;1.00
4637;DHT22;2331;48.806;9.140;2023-05-10T11:48:03;18.00;1.00
4637;DHT22;2331;48.806;9.140;2023-05-10T11:50:31;18.00;1.00
4637;DHT22;2331;48.806;9.140;2023-05-10T11:52:58;18.00;1.00
4637;DHT22;2331;48.806;9.140;2023-05-10T11:55:25;18.00;1.00
4637;DHT22;2331;48.806;9.140;2023-05-10T11:57:52;17.90;1.00
4637;DHT22;2331;48.806;9.140;2023-05-10T12:00:20;17.80;1.00
4637;DHT22;2331;48.806;9.140;2023-05-10T12:02:47;17.70;1.00
4637;DHT22;2331;48.806;9.140;2023-05-10T12:05:14;17.80;1.00
4637;DHT22;2331;48.806;9.140;2023-05-10T12:07:42;17.70;1.00
4637;DHT22;2331;48.806;9.140;2023-05-10T12:10:11;17.80;1.00
4637;DHT22;2331;48.806;9.140;2023-05-10T12:12:40;17.80;1.00
4637;DHT22;2331;48.806;9.140;2023-05-10T12:15:12;17.80;1.00
4637;DHT22;2331;48.806;9.140;2023-05-10T12:17:39;17.90;1.00
4637;DHT22;2331;48.806;9.140;2023-05-10T12:20:20;17.90;1.00
4637;DHT22;2331;48.806;9.140;2023-05-10T12:22:51;17.90;1.00
4637;DHT22;2331;48.806;9.140;2023-05-10T12:25:19;18.00;1.00
4637;DHT22;2331;48.806;9.140;2023-05-10T12:27:51;18.10;1.00
4637;DHT22;2331;48.806;9.140;2023-05-10T12:30:20;18.20;1.00
4637;DHT22;2331;48.806;9.140;2023-05-10T12:32:47;18.20;1.00
4637;DHT22;2331;48.806;9.140;2023-05-10T12:35:14;18.20;1.00
4637;DHT22;2331;48.806;9.140;2023-05-10T12:37:42;18.20;1.00
4637;DHT22;2331;48.806;9.140;2023-05-10T12:40:10;18.40;1.00
4637;DHT22;2331;48.806;9.140;2023-05-10T12:42:38;18.40;1.00
4637;DHT22;2331;48.806;9.140;2023-05-10T12:45:06;18.40;1.00
4637;DHT22;2331;48.806;9.140;2023-05-10T12:47:34;18.30;1.00
4637;DHT22;2331;48.806;9.140;2023-05-10T12:50:01;18.30;1.00
4637;DHT22;2331;48.806;9.140;2023-05-10T12:52:29;18.30;1.00
4637;DHT22;2331;48.806;9.140;2023-05-10T12:54:57;18.20;1.00
4637;DHT22;2331;48.806;9.140;2023-05-10T12:57:25;18.20;1.00
4637;DHT22;2331;48.806;9.140;2023-05-10T12:59:52;18.10;1.00
4637;DHT22;2331;48.806;9.140;2023-05-10T13:02:19;18.20;1.00
4637;DHT22;2331;48.806;9.140;2023-05-10T13:04:46;18.40;1.00
4637;DHT22;2331;48.806;9.140;2023-05-10T13:07:13;18.40;1.00
4637;DHT22;2331;48.806;9.140;2023-05-10T13:09:40;18.50;1.00
4637;DHT22;2331;48.806;9.140;2023-05-10T13:12:07;18.40;1.00
4637;DHT22;2331;48.806;9.140;2023-05-10T13:14:35;18.40;1.00
4637;DHT22;2331;48.806;9.140;2023-05-10T13:17:02;18.30;1.00
4637;DHT22;2331;48.806;9.140;2023-05-10T13:19:28;18.30;1.00
4637;DHT22;2331;48.806;9.140;2023-05-10T13:21:55;18.30;1.00
4637;DHT22;2331;48.806;9.140;2023-05-10T13:24:22;18.30;1.00
4637;DHT22;2331;48.806;9.140;2023-05-10T13:26:49;18.30;1.00
4637;DHT22;2331;48.806;9.140;2023-05-10T13:29:16;18.30;1.00
4637;DHT22;2331;48.806;9.140;2023-05-10T13:31:45;18.30;1.00
4637;DHT22;2331;48.806;9.140;2023-05-10T13:34:12;18.30;1.00
4637;DHT22;2331;48.806;9.140;2023-05-10T13:36:38;18.30;1.00
4637;DHT22;2331;48.806;9.140;2023-05-10T13:39:05;18.20;1.00
4637;DHT22;2331;48.806;9.140;2023-05-10T13:41:32;18.10;1.00
4637;DHT22;2331;48.806;9.140;2023-05-10T13:43:59;18.20;1.00
4637;DHT22;2331;48.806;9.140;2023-05-10T13:46:26;18.20;1.00
4637;DHT22;2331;48.806;9.140;2023-05-10T13:48:54;18.20;1.00
4637;DHT22;2331;48.806;9.140;2023-05-10T13:51:23;18.20;1.00
4637;DHT22;2331;48.806;9.140;2023-05-10T13:53:49;18.30;1.00
4637;DHT22;2331;48.806;9.140;2023-05-10T13:56:17;18.20;1.00
4637;DHT22;2331;48.806;9.140;2023-05-10T13:58:44;18.20;1.00
4637;DHT22;2331;48.806;9.140;2023-05-10T14:01:11;18.30;1.00
4637;DHT22;2331;48.806;9.140;2023-05-10T14:03:38;18.40;1.00
4637;DHT22;2331;48.806;9.140;2023-05-10T14:06:06;18.40;1.00
4637;DHT22;2331;48.806;9.140;2023-05-10T14:08:34;18.40;1.00
4637;DHT22;2331;48.806;9.140;2023-05-10T14:11:01;18.50;1.00
4637;DHT22;2331;48.806;9.140;2023-05-10T14:13:27;18.60;1.00
4637;DHT22;2331;48.806;9.140;2023-05-10T14:15:54;18.50;1.00
4637;DHT22;2331;48.806;9.140;2023-05-10T14:18:21;18.60;1.00
4637;DHT22;2331;48.806;9.140;2023-05-10T14:20:48;18.60;1.00
4637;DHT22;2331;48.806;9.140;2023-05-10T14:23:17;18.50;1.00
4637;DHT22;2331;48.806;9.140;2023-05-10T14:25:45;18.50;1.00
4637;DHT22;2331;48.806;9.140;2023-05-10T14:28:12;18.50;1.00
4637;DHT22;2331;48.806;9.140;2023-05-10T14:30:38;18.50;1.00
4637;DHT22;2331;48.806;9.140;2023-05-10T14:33:05;18.60;1.00
4637;DHT22;2331;48.806;9.140;2023-05-10T14:35:33;18.70;1.00
4637;DHT22;2331;48.806;9.140;2023-05-10T14:38:01;18.60;1.00
4637;DHT22;2331;48.806;9.140;2023-05-10T14:40:30;18.60;1.00
4637;DHT22;2331;48.806;9.140;2023-05-10T14:42:57;18.60;1.00
4637;DHT22;2331;48.806;9.140;2023-05-10T14:45:24;18.70;1.00
4637;DHT22;2331;48.806;9.140;2023-05-10T14:47:50;18.70;1.00
4637;DHT22;2331;48.806;9.140;2023-05-10T14:50:17;18.70;1.00
4637;DHT22;2331;48.806;9.140;2023-05-10T14:52:44;18.70;1.00
4637;DHT22;2331;48.806;9.140;2023-05-10T14:55:11;18.80;1.00
4637;DHT22;2331;48.806;9.140;2023-05-10T14:57:39;18.70;1.00
4637;DHT22;2331;48.806;9.140;2023-05-10T15:00:07;18.70;1.00
4637;DHT22;2331;48.806;9.140;2023-05-10T15:02:34;18.80;1.00
4637;DHT22;2331;48.806;9.140;2023-05-10T15:05:01;18.70;1.00
4637;DHT22;2331;48.806;9.140;2023-05-10T15:07:28;18.70;1.00
4637;DHT22;2331;48.806;9.140;2023-05-10T15:09:55;18.70;1.00
4637;DHT22;2331;48.806;9.140;2023-05-10T15:12:21;18.80;1.00
4637;DHT22;2331;48.806;9.140;2023-05-10T15:14:50;18.90;1.00
4637;DHT22;2331;48.806;9.140;2023-05-10T15:17:16;19.00;1.00
4637;DHT22;2331;48.806;9.140;2023-05-10T15:19:44;19.10;1.00
4637;DHT22;2331;48.806;9.140;2023-05-10T15:22:11;19.20;1.00
4637;DHT22;2331;48.806;9.140;2023-05-10T15:24:38;19.10;1.00
4637;DHT22;2331;48.806;9.140;2023-05-10T15:27:05;19.20;1.00
4637;DHT22;2331;48.806;9.140;2023-05-10T15:29:32;19.20;1.00
4637;DHT22;2331;48.806;9.140;2023-05-10T15:32:01;19.20;1.00
4637;DHT22;2331;48.806;9.140;2023-05-10T15:34:28;19.20;1.00
4637;DHT22;2331;48.806;9.140;2023-05-10T15:36:55;19.00;1.00
4637;DHT22;2331;48.806;9.140;2023-05-10T15:39:21;19.00;1.00
4637;DHT22;2331;48.806;9.140;2023-05-10T15:41:48;19.10;1.00
4637;DHT22;2331;48.806;9.140;2023-05-10T15:44:15;19.10;1.00
4637;DHT22;2331;48.806;9.140;2023-05-10T15:46:42;19.20;1.00
4637;DHT22;2331;48.806;9.140;2023-05-10T15:49:10;19.20;1.00
4637;DHT22;2331;48.806;9.140;2023-05-10T15:51:36;19.10;1.00
4637;DHT22;2331;48.806;9.140;2023-05-10T15:54:03;19.10;1.00
4637;DHT22;2331;48.806;9.140;2023-05-10T15:56:32;19.20;1.00
4637;DHT22;2331;48.806;9.140;2023-05-10T15:58:59;19.20;1.00
4637;DHT22;2331;48.806;9.140;2023-05-10T16:01:26;19.20;1.00
4637;DHT22;2331;48.806;9.140;2023-05-10T16:03:53;19.10;1.00
4637;DHT22;2331;48.806;9.140;2023-05-10T16:06:21;19.20;1.00
4637;DHT22;2331;48.806;9.140;2023-05-10T16:08:48;19.30;1.00
4637;DHT22;2331;48.806;9.140;2023-05-10T16:11:15;19.20;1.00
4637;DHT22;2331;48.806;9.140;2023-05-10T16:13:41;19.20;1.00
4637;DHT22;2331;48.806;9.140;2023-05-10T16:16:08;19.10;1.00
4637;DHT22;2331;48.806;9.140;2023-05-10T16:18:35;19.10;1.00
4637;DHT22;2331;48.806;9.140;2023-05-10T16:21:02;19.10;1.00
4637;DHT22;2331;48.806;9.140;2023-05-10T16:23:31;19.10;1.00
4637;DHT22;2331;48.806;9.140;2023-05-10T16:25:58;19.10;1.00